createdAt,value
2019-03-12T00:00:24.632Z,30.90
2019-03-12T00:01:24.617Z,31.10
2019-03-12T00:02:24.613Z,30.90
2019-03-12T00:03:24.621Z,30.80
2019-03-12T00:04:24.592Z,31.20
2019-03-12T00:05:24.574Z,30.90
2019-03-12T00:06:24.569Z,29.80
2019-03-12T00:07:24.552Z,30.09
2019-03-12T00:08:24.554Z,30.49
2019-03-12T00:09:24.532Z,30.89
2019-03-12T00:10:24.522Z,30.09
2019-03-12T00:11:24.512Z,30.59
2019-03-12T00:12:24.504Z,30.18
2019-03-12T00:13:24.524Z,30.09
2019-03-12T00:14:24.481Z,30.39
2019-03-12T00:15:24.465Z,29.80
2019-03-12T00:16:24.459Z,29.91
2019-03-12T00:17:24.459Z,30.21
2019-03-12T00:18:24.454Z,30.00
2019-03-12T00:19:24.432Z,30.91
2019-03-12T00:20:24.417Z,30.72
2019-03-12T00:21:24.408Z,31.12
2019-03-12T00:22:24.398Z,31.32
2019-03-12T00:23:24.411Z,31.43
2019-03-12T00:24:24.374Z,31.43
2019-03-12T00:25:24.370Z,31.23
2019-03-12T00:26:24.354Z,31.34
2019-03-12T00:27:24.339Z,31.54
2019-03-12T00:28:24.337Z,31.45
2019-03-12T00:29:24.336Z,31.86
2019-03-12T00:30:24.319Z,32.26
2019-03-12T00:31:24.300Z,32.54
2019-03-12T00:32:24.295Z,31.66
2019-03-12T00:33:24.290Z,31.45
2019-03-12T00:34:24.305Z,31.43
2019-03-12T00:35:24.260Z,31.33
2019-03-12T00:36:24.252Z,30.62
2019-03-12T00:37:24.237Z,30.11
2019-03-12T00:38:24.228Z,29.99
2019-03-12T00:39:24.223Z,29.20
2019-03-12T00:40:24.224Z,29.38
2019-03-12T00:41:24.203Z,29.47
2019-03-12T00:42:24.195Z,28.88
2019-03-12T00:43:24.176Z,29.67
2019-03-12T00:44:24.165Z,28.58
2019-03-12T00:45:24.169Z,28.56
2019-03-12T00:46:26.957Z,28.76
2019-03-12T00:47:24.135Z,28.97
2019-03-12T00:48:24.125Z,28.76
2019-03-12T00:49:24.118Z,28.97
2019-03-12T00:50:24.118Z,28.56
2019-03-12T00:51:24.091Z,28.18
2019-03-12T00:52:24.086Z,28.47
2019-03-12T00:53:24.071Z,28.96
2019-03-12T00:54:24.057Z,29.07
2019-03-12T00:55:24.080Z,29.16
2019-03-12T00:56:24.040Z,28.56
2019-03-12T00:57:24.029Z,28.76
2019-03-12T00:58:24.019Z,28.76
2019-03-12T00:59:24.012Z,28.56
2019-03-12T01:00:24.000Z,28.17
2019-03-12T01:01:24.007Z,28.66
2019-03-12T01:02:23.978Z,28.38
2019-03-12T01:03:23.965Z,28.28
2019-03-12T01:04:23.954Z,29.07
2019-03-12T01:05:23.947Z,28.28
2019-03-12T01:06:23.968Z,28.28
2019-03-12T01:07:23.919Z,28.58
2019-03-12T01:08:23.912Z,28.66
2019-03-12T01:09:23.902Z,28.86
2019-03-12T01:10:23.890Z,28.46
2019-03-12T01:11:23.892Z,28.06
2019-03-12T01:12:23.889Z,28.17
2019-03-12T01:13:23.860Z,28.46
2019-03-12T01:14:23.858Z,28.46
2019-03-12T01:15:23.841Z,28.46
2019-03-12T01:16:23.832Z,28.36
2019-03-12T01:17:23.833Z,28.56
2019-03-12T01:18:23.812Z,28.27
2019-03-12T01:19:23.801Z,28.36
2019-03-12T01:20:23.787Z,28.27
2019-03-12T01:21:23.777Z,28.46
2019-03-12T01:22:23.804Z,28.25
2019-03-12T01:23:23.756Z,28.45
2019-03-12T01:24:23.755Z,28.15
2019-03-12T01:25:23.734Z,27.75
2019-03-12T01:26:23.720Z,27.75
2019-03-12T01:27:23.738Z,27.75
2019-03-12T01:28:23.700Z,28.55
2019-03-12T01:29:23.690Z,28.85
2019-03-12T01:30:23.675Z,28.46
2019-03-12T01:31:23.675Z,28.46
2019-03-12T01:32:23.659Z,28.66
2019-03-12T01:33:23.680Z,28.46
2019-03-12T01:34:23.732Z,28.15
2019-03-12T01:35:23.626Z,27.87
2019-03-12T01:36:23.697Z,27.75
2019-03-12T01:37:23.606Z,27.95
2019-03-12T01:38:23.641Z,28.25
2019-03-12T01:39:23.588Z,28.15
2019-03-12T01:40:23.577Z,28.05
2019-03-12T01:41:23.564Z,27.87
2019-03-12T01:42:23.553Z,27.75
2019-03-12T01:43:23.560Z,27.86
2019-03-12T01:44:23.539Z,27.77
2019-03-12T01:45:23.527Z,27.97
2019-03-12T01:46:23.508Z,28.15
2019-03-12T01:47:23.500Z,28.05
2019-03-12T01:48:23.522Z,28.25
2019-03-12T01:49:23.485Z,27.46
2019-03-12T01:50:23.467Z,27.56
2019-03-12T01:51:23.464Z,27.66
2019-03-12T01:52:23.452Z,27.75
2019-03-12T01:53:23.444Z,27.75
2019-03-12T01:54:23.446Z,27.36
2019-03-12T01:55:23.446Z,27.46
2019-03-12T01:56:23.450Z,28.05
2019-03-12T01:57:23.391Z,28.05
2019-03-12T01:58:23.389Z,28.05
2019-03-12T01:59:23.385Z,27.86
2019-03-12T02:00:23.368Z,28.05
2019-03-12T02:01:23.354Z,28.15
2019-03-12T02:02:23.343Z,27.36
2019-03-12T02:03:23.333Z,27.86
2019-03-12T02:04:23.344Z,27.56
2019-03-12T02:05:23.309Z,27.56
2019-03-12T02:06:23.297Z,27.86
2019-03-12T02:07:23.294Z,27.56
2019-03-12T02:08:23.279Z,27.56
2019-03-12T02:09:23.292Z,27.56
2019-03-12T02:10:23.258Z,27.26
2019-03-12T02:11:23.248Z,27.66
2019-03-12T02:12:23.236Z,27.26
2019-03-12T02:13:23.232Z,27.66
2019-03-12T02:14:23.242Z,27.75
2019-03-12T02:15:23.217Z,27.75
2019-03-12T02:16:23.195Z,26.95
2019-03-12T02:17:23.187Z,27.55
2019-03-12T02:18:23.172Z,27.55
2019-03-12T02:19:23.164Z,27.25
2019-03-12T02:20:23.167Z,27.16
2019-03-12T02:21:23.147Z,27.16
2019-03-12T02:22:23.131Z,27.95
2019-03-12T02:23:23.122Z,27.56
2019-03-12T02:24:23.111Z,27.56
2019-03-12T02:25:23.121Z,27.56
2019-03-12T02:26:23.094Z,27.84
2019-03-12T02:27:23.093Z,27.55
2019-03-12T02:28:23.068Z,27.25
2019-03-12T02:29:23.052Z,27.15
2019-03-12T02:30:23.090Z,27.15
2019-03-12T02:31:23.038Z,27.44
2019-03-12T02:32:23.030Z,27.25
2019-03-12T02:33:23.016Z,27.46
2019-03-12T02:34:23.012Z,27.36
2019-03-12T02:35:23.008Z,27.56
2019-03-12T02:36:22.987Z,27.57
2019-03-12T02:37:22.986Z,27.47
2019-03-12T02:38:22.969Z,28.06
2019-03-12T02:39:22.954Z,27.87
2019-03-12T02:40:22.974Z,28.97
2019-03-12T02:41:22.932Z,28.38
2019-03-12T02:42:22.925Z,27.98
2019-03-12T02:43:22.913Z,28.49
2019-03-12T02:44:22.908Z,29.10
2019-03-12T02:45:22.890Z,28.60
2019-03-12T02:46:22.902Z,29.69
2019-03-12T02:47:22.878Z,29.02
2019-03-12T02:48:22.866Z,29.21
2019-03-12T02:49:22.853Z,30.02
2019-03-12T02:50:22.844Z,30.11
2019-03-12T02:51:22.852Z,29.93
2019-03-12T02:52:22.822Z,29.82
2019-03-12T02:53:22.822Z,29.71
2019-03-12T02:54:22.804Z,29.51
2019-03-12T02:55:22.791Z,29.10
2019-03-12T02:56:22.802Z,29.00
2019-03-12T02:57:22.769Z,28.69
2019-03-12T02:58:22.764Z,28.58
2019-03-12T02:59:22.748Z,28.38
2019-03-12T03:00:22.742Z,28.06
2019-03-12T03:01:22.727Z,27.57
2019-03-12T03:02:22.740Z,27.56
2019-03-12T03:03:22.715Z,26.96
2019-03-12T03:04:22.697Z,27.46
2019-03-12T03:05:22.682Z,27.15
2019-03-12T03:06:22.702Z,27.34
2019-03-12T03:07:22.681Z,27.34
2019-03-12T03:08:22.655Z,27.06
2019-03-12T03:09:22.640Z,27.26
2019-03-12T03:10:23.320Z,27.26
2019-03-12T03:11:22.624Z,27.26
2019-03-12T03:12:22.644Z,27.06
2019-03-12T03:13:22.602Z,27.75
2019-03-12T03:14:22.585Z,27.75
2019-03-12T03:15:22.578Z,27.56
2019-03-12T03:16:24.222Z,27.16
2019-03-12T03:17:22.587Z,27.46
2019-03-12T03:18:22.546Z,27.46
2019-03-12T03:19:22.535Z,27.46
2019-03-12T03:20:22.529Z,27.26
2019-03-12T03:21:22.519Z,27.06
2019-03-12T03:22:22.505Z,27.46
2019-03-12T03:23:22.506Z,27.16
2019-03-12T03:24:22.491Z,27.46
2019-03-12T03:25:22.471Z,27.36
2019-03-12T03:26:22.481Z,26.96
2019-03-12T03:27:22.454Z,27.16
2019-03-12T03:28:22.494Z,27.17
2019-03-12T03:29:22.429Z,27.26
2019-03-12T03:30:22.421Z,27.46
2019-03-12T03:31:22.409Z,26.86
2019-03-12T03:32:22.399Z,27.15
2019-03-12T03:33:22.445Z,27.15
2019-03-12T03:34:27.836Z,27.36
2019-03-12T03:35:23.378Z,27.26
2019-03-12T03:36:22.364Z,27.46
2019-03-12T03:37:22.344Z,26.86
2019-03-12T03:38:22.335Z,27.46
2019-03-12T03:39:22.338Z,27.56
2019-03-12T03:40:22.310Z,27.46
2019-03-12T03:41:22.311Z,27.26
2019-03-12T03:42:22.344Z,27.36
2019-03-12T03:43:22.294Z,26.96
2019-03-12T03:44:22.288Z,27.36
2019-03-12T03:45:22.283Z,27.16
2019-03-12T03:46:22.250Z,27.04
2019-03-12T03:47:22.238Z,26.95
2019-03-12T03:48:22.240Z,27.16
2019-03-12T03:49:22.242Z,27.36
2019-03-12T03:50:22.218Z,27.36
2019-03-12T03:51:22.208Z,27.16
2019-03-12T03:52:22.237Z,27.16
2019-03-12T03:53:22.183Z,27.46
2019-03-12T03:54:22.174Z,27.46
2019-03-12T03:55:22.178Z,26.96
2019-03-12T03:56:22.155Z,27.34
2019-03-12T03:57:22.140Z,27.34
2019-03-12T03:58:22.134Z,26.55
2019-03-12T03:59:22.116Z,26.65
2019-03-12T04:00:22.127Z,27.15
2019-03-12T04:01:22.094Z,26.85
2019-03-12T04:02:22.095Z,27.04
2019-03-12T04:03:22.075Z,26.95
2019-03-12T04:04:22.074Z,27.16
2019-03-12T04:05:22.090Z,27.36
2019-03-12T04:06:22.043Z,27.16
2019-03-12T04:07:22.038Z,27.46
2019-03-12T04:08:22.020Z,27.16
2019-03-12T04:09:22.086Z,27.46
2019-03-12T04:10:22.002Z,27.34
2019-03-12T04:11:22.017Z,27.16
2019-03-12T04:12:21.982Z,27.04
2019-03-12T04:13:21.972Z,27.15
2019-03-12T04:14:21.967Z,27.04
2019-03-12T04:15:21.953Z,27.15
2019-03-12T04:16:21.962Z,27.06
2019-03-12T04:17:21.933Z,27.46
2019-03-12T04:18:21.928Z,27.26
2019-03-12T04:19:21.909Z,26.98
2019-03-12T04:20:21.920Z,27.17
2019-03-12T04:21:21.935Z,27.57
2019-03-12T04:22:21.883Z,28.08
2019-03-12T04:23:21.876Z,27.98
2019-03-12T04:24:21.870Z,27.98
2019-03-12T04:25:21.860Z,28.67
2019-03-12T04:26:21.840Z,28.88
2019-03-12T04:27:21.861Z,28.47
2019-03-12T04:28:21.826Z,27.88
2019-03-12T04:29:21.810Z,27.98
2019-03-12T04:30:21.805Z,28.28
2019-03-12T04:31:21.790Z,28.06
2019-03-12T04:32:21.797Z,27.77
2019-03-12T04:33:21.772Z,27.57
2019-03-12T04:34:21.772Z,27.57
2019-03-12T04:35:21.753Z,27.77
2019-03-12T04:36:21.876Z,27.26
2019-03-12T04:37:21.759Z,27.46
2019-03-12T04:38:21.719Z,27.36
2019-03-12T04:39:21.707Z,26.55
2019-03-12T04:40:21.701Z,26.95
2019-03-12T04:41:21.685Z,27.15
2019-03-12T04:42:21.685Z,26.85
2019-03-12T04:43:21.680Z,26.65
2019-03-12T04:44:21.656Z,26.75
2019-03-12T04:45:21.649Z,26.85
2019-03-12T04:46:21.635Z,26.64
2019-03-12T04:47:21.629Z,26.85
2019-03-12T04:48:21.631Z,26.54
2019-03-12T04:49:21.614Z,26.34
2019-03-12T04:50:21.616Z,27.23
2019-03-12T04:51:21.585Z,26.54
2019-03-12T04:52:21.573Z,26.74
2019-03-12T04:53:21.575Z,26.93
2019-03-12T04:54:21.557Z,26.64
2019-03-12T04:55:21.551Z,26.93
2019-03-12T04:56:21.537Z,26.64
2019-03-12T04:57:21.522Z,26.74
2019-03-12T04:58:21.525Z,27.25
2019-03-12T04:59:21.591Z,26.85
2019-03-12T05:00:21.493Z,27.15
2019-03-12T05:01:21.485Z,27.46
2019-03-12T05:02:21.473Z,27.56
2019-03-12T05:03:21.484Z,27.86
2019-03-12T05:04:21.457Z,28.46
2019-03-12T05:05:21.443Z,28.77
2019-03-12T05:06:21.431Z,28.08
2019-03-12T05:07:21.423Z,28.08
2019-03-12T05:08:21.427Z,28.39
2019-03-12T05:09:21.407Z,27.91
2019-03-12T05:10:21.397Z,28.30
2019-03-12T05:11:21.381Z,29.00
2019-03-12T05:12:21.373Z,28.72
2019-03-12T05:13:21.387Z,29.02
2019-03-12T05:14:21.359Z,29.11
2019-03-12T05:15:21.344Z,29.02
2019-03-12T05:16:21.333Z,28.52
2019-03-12T05:17:21.320Z,28.80
2019-03-12T05:18:21.343Z,28.49
2019-03-12T05:19:21.303Z,28.49
2019-03-12T05:20:21.295Z,27.98
2019-03-12T05:21:21.284Z,28.06
2019-03-12T05:22:21.277Z,27.67
2019-03-12T05:23:21.291Z,27.26
2019-03-12T05:24:21.249Z,26.96
2019-03-12T05:25:21.245Z,27.06
2019-03-12T05:26:21.231Z,26.46
2019-03-12T05:27:21.230Z,26.37
2019-03-12T05:28:21.207Z,27.25
2019-03-12T05:29:21.213Z,26.95
2019-03-12T05:30:21.193Z,26.85
2019-03-12T05:31:21.181Z,26.95
2019-03-12T05:32:21.168Z,26.95
2019-03-12T05:33:21.157Z,27.04
2019-03-12T05:34:23.194Z,26.85
2019-03-12T05:35:21.150Z,27.15
2019-03-12T05:36:21.128Z,27.44
2019-03-12T05:37:21.128Z,28.73
2019-03-12T05:38:21.109Z,28.73
2019-03-12T05:39:21.117Z,28.44
2019-03-12T05:40:21.101Z,28.83
2019-03-12T05:41:21.081Z,29.63
2019-03-12T05:42:21.069Z,29.52
2019-03-12T05:43:21.072Z,29.72
2019-03-12T05:44:21.075Z,30.12
2019-03-12T05:45:21.053Z,29.52
2019-03-12T05:46:21.026Z,30.12
2019-03-12T05:47:21.017Z,30.00
2019-03-12T05:48:21.004Z,29.63
2019-03-12T05:49:20.998Z,29.92
2019-03-12T05:50:20.998Z,29.52
2019-03-12T05:51:20.981Z,29.43
2019-03-12T05:52:20.967Z,30.12
2019-03-12T05:53:20.961Z,29.92
2019-03-12T05:54:20.955Z,29.63
2019-03-12T05:55:20.973Z,29.51
2019-03-12T05:56:20.928Z,30.10
2019-03-12T05:57:20.923Z,29.52
2019-03-12T05:58:20.905Z,29.92
2019-03-12T05:59:20.903Z,30.04
2019-03-12T06:00:20.904Z,30.04
2019-03-12T06:01:20.879Z,30.94
2019-03-12T06:02:20.878Z,31.15
2019-03-12T06:03:20.854Z,31.45
2019-03-12T06:04:20.848Z,30.97
2019-03-12T06:05:20.854Z,31.27
2019-03-12T06:06:20.829Z,31.57
2019-03-12T06:07:20.818Z,31.78
2019-03-12T06:08:20.808Z,32.78
2019-03-12T06:09:29.761Z,32.59
2019-03-12T06:10:21.802Z,33.18
2019-03-12T06:11:20.781Z,33.00
2019-03-12T06:12:20.770Z,33.81
2019-03-12T06:13:20.752Z,34.23
2019-03-12T06:14:20.742Z,33.83
2019-03-12T06:15:20.766Z,34.45
2019-03-12T06:16:20.721Z,35.36
2019-03-12T06:17:20.723Z,34.96
2019-03-12T06:18:20.762Z,34.76
2019-03-12T06:19:20.691Z,35.38
2019-03-12T06:20:20.684Z,35.08
2019-03-12T06:21:20.687Z,35.88
2019-03-12T06:22:20.666Z,36.47
2019-03-12T06:23:20.656Z,35.29
2019-03-12T06:24:20.640Z,36.19
2019-03-12T06:25:20.632Z,36.57
2019-03-12T06:26:20.641Z,36.18
2019-03-12T06:27:20.609Z,35.97
2019-03-12T06:28:20.601Z,36.27
2019-03-12T06:29:20.586Z,36.05
2019-03-12T06:30:20.580Z,35.75
2019-03-12T06:31:20.596Z,35.56
2019-03-12T06:32:20.569Z,34.86
2019-03-12T06:33:24.178Z,34.36
2019-03-12T06:34:20.534Z,32.07
2019-03-12T06:35:20.527Z,31.59
2019-03-12T06:36:20.514Z,32.77
2019-03-12T06:37:20.525Z,32.48
2019-03-12T06:38:20.502Z,33.38
2019-03-12T06:39:20.484Z,33.68
2019-03-12T06:40:20.470Z,33.20
2019-03-12T06:41:20.460Z,34.41
2019-03-12T06:42:20.472Z,33.83
2019-03-12T06:43:20.441Z,34.03
2019-03-12T06:44:20.429Z,35.05
2019-03-12T06:45:20.415Z,35.05
2019-03-12T06:46:20.404Z,34.56
2019-03-12T06:47:20.411Z,35.06
2019-03-12T06:48:20.386Z,34.88
2019-03-12T06:49:20.374Z,35.48
2019-03-12T06:50:20.365Z,35.18
2019-03-12T06:51:20.353Z,35.88
2019-03-12T06:52:20.364Z,35.88
2019-03-12T06:53:20.346Z,35.60
2019-03-12T06:54:20.320Z,35.39
2019-03-12T06:55:20.312Z,35.91
2019-03-12T06:56:20.303Z,36.81
2019-03-12T06:57:20.318Z,36.51
2019-03-12T06:58:20.283Z,37.31
2019-03-12T06:59:20.266Z,37.51
2019-03-12T07:00:20.262Z,36.91
2019-03-12T07:01:20.251Z,36.11
2019-03-12T07:02:20.239Z,36.90
2019-03-12T07:03:20.241Z,36.29
2019-03-12T07:04:20.215Z,36.38
2019-03-12T07:05:20.207Z,35.78
2019-03-12T07:06:20.197Z,34.76
2019-03-12T07:07:20.191Z,35.96
2019-03-12T07:08:20.204Z,35.86
2019-03-12T07:09:20.170Z,35.54
2019-03-12T07:10:20.154Z,35.54
2019-03-12T07:11:20.183Z,35.44
2019-03-12T07:12:20.147Z,35.03
2019-03-12T07:13:20.123Z,35.23
2019-03-12T07:14:22.579Z,35.03
2019-03-12T07:15:20.103Z,35.11
2019-03-12T07:16:20.091Z,34.41
2019-03-12T07:17:20.082Z,34.51
2019-03-12T07:18:20.069Z,34.51
2019-03-12T07:19:20.160Z,34.41
2019-03-12T07:20:20.050Z,34.20
2019-03-12T07:21:20.038Z,33.90
2019-03-12T07:22:20.029Z,34.28
2019-03-12T07:23:20.020Z,34.08
2019-03-12T07:24:20.038Z,34.48
2019-03-12T07:25:20.010Z,34.38
2019-03-12T07:26:19.991Z,34.46
2019-03-12T07:27:19.975Z,34.28
2019-03-12T07:28:19.970Z,34.28
2019-03-12T07:29:19.954Z,34.38
2019-03-12T07:30:19.963Z,34.18
2019-03-12T07:31:20.056Z,33.76
2019-03-12T07:32:19.929Z,33.86
2019-03-12T07:33:19.915Z,34.58
2019-03-12T07:34:19.901Z,33.97
2019-03-12T07:35:22.631Z,34.06
2019-03-12T07:36:19.901Z,34.27
2019-03-12T07:37:19.869Z,34.16
2019-03-12T07:38:19.861Z,34.36
2019-03-12T07:39:19.847Z,34.08
2019-03-12T07:40:20.363Z,34.27
2019-03-12T07:41:31.341Z,33.98
2019-03-12T07:42:20.822Z,34.08
2019-03-12T07:43:19.816Z,34.46
2019-03-12T07:44:19.803Z,35.17
2019-03-12T07:45:19.810Z,33.88
2019-03-12T07:46:19.777Z,34.48
2019-03-12T07:47:19.765Z,33.88
2019-03-12T07:48:19.753Z,34.28
2019-03-12T07:49:19.744Z,34.58
2019-03-12T07:50:19.735Z,34.86
2019-03-12T07:51:19.744Z,34.96
2019-03-12T07:52:19.723Z,34.56
2019-03-12T07:53:19.818Z,34.16
2019-03-12T07:54:19.690Z,34.68
2019-03-12T07:55:19.697Z,34.58
2019-03-12T07:56:19.682Z,34.98
2019-03-12T07:57:19.659Z,34.98
2019-03-12T07:58:19.653Z,35.08
2019-03-12T07:59:19.640Z,34.88
2019-03-12T08:00:19.629Z,34.96
2019-03-12T08:01:19.639Z,35.17
2019-03-12T08:02:19.617Z,35.46
2019-03-12T08:03:19.597Z,35.08
2019-03-12T08:04:19.587Z,35.17
2019-03-12T08:05:19.583Z,34.86
2019-03-12T08:06:19.606Z,35.38
2019-03-12T08:07:19.551Z,35.16
2019-03-12T08:08:19.541Z,35.16
2019-03-12T08:09:19.535Z,34.66
2019-03-12T08:10:19.521Z,34.76
2019-03-12T08:11:19.545Z,35.26
2019-03-12T08:12:19.503Z,34.88
2019-03-12T08:13:19.494Z,35.36
2019-03-12T08:14:19.480Z,35.36
2019-03-12T08:15:23.342Z,34.36
2019-03-12T08:16:19.471Z,34.56
2019-03-12T08:17:19.472Z,35.36
2019-03-12T08:18:19.439Z,35.16
2019-03-12T08:19:19.428Z,35.16
2019-03-12T08:20:19.417Z,35.86
2019-03-12T08:21:22.494Z,35.38
2019-03-12T08:22:19.405Z,35.46
2019-03-12T08:23:19.382Z,34.58
2019-03-12T08:24:19.374Z,35.66
2019-03-12T08:25:19.373Z,35.46
2019-03-12T08:26:19.359Z,35.36
2019-03-12T08:27:19.369Z,35.26
2019-03-12T08:28:19.335Z,35.56
2019-03-12T08:29:19.319Z,35.46
2019-03-12T08:30:19.323Z,35.75
2019-03-12T08:31:19.299Z,35.47
2019-03-12T08:32:19.315Z,35.88
2019-03-12T08:33:19.276Z,35.77
2019-03-12T08:34:19.269Z,35.97
2019-03-12T08:35:19.261Z,35.96
2019-03-12T08:36:19.243Z,35.86
2019-03-12T08:37:19.258Z,35.66
2019-03-12T08:38:19.224Z,35.75
2019-03-12T08:39:19.218Z,35.86
2019-03-12T08:40:19.206Z,35.96
2019-03-12T08:41:19.192Z,36.46
2019-03-12T08:42:19.199Z,35.96
2019-03-12T08:43:19.174Z,35.26
2019-03-12T08:44:19.174Z,35.26
2019-03-12T08:45:19.159Z,36.05
2019-03-12T08:46:22.361Z,36.05
2019-03-12T08:47:19.165Z,35.96
2019-03-12T08:48:19.119Z,35.86
2019-03-12T08:49:19.111Z,35.28
2019-03-12T08:50:19.101Z,35.97
2019-03-12T08:51:19.092Z,36.07
2019-03-12T08:52:19.102Z,36.19
2019-03-12T08:53:19.067Z,37.10
2019-03-12T08:54:21.345Z,36.80
2019-03-12T08:55:19.044Z,37.40
2019-03-12T08:56:19.061Z,37.72
2019-03-12T08:57:19.025Z,37.23
2019-03-12T08:58:19.067Z,37.52
2019-03-12T08:59:19.005Z,38.24
2019-03-12T09:00:18.992Z,37.56
2019-03-12T09:01:19.057Z,38.56
2019-03-12T09:02:18.969Z,38.46
2019-03-12T09:03:18.977Z,39.15
2019-03-12T09:04:18.952Z,39.56
2019-03-12T09:05:18.938Z,38.16
2019-03-12T09:06:18.944Z,38.64
2019-03-12T09:07:18.917Z,38.44
2019-03-12T09:08:18.934Z,37.52
2019-03-12T09:09:18.899Z,37.60
2019-03-12T09:10:18.892Z,37.79
2019-03-12T09:11:18.880Z,37.07
2019-03-12T09:12:18.867Z,36.47
2019-03-12T09:13:18.875Z,35.96
2019-03-12T09:14:18.846Z,35.75
2019-03-12T09:15:18.834Z,35.66
2019-03-12T09:16:18.825Z,36.16
2019-03-12T09:17:18.813Z,35.64
2019-03-12T09:18:18.819Z,35.84
2019-03-12T09:19:18.795Z,35.64
2019-03-12T09:20:18.823Z,35.74
2019-03-12T09:21:18.776Z,35.33
2019-03-12T09:22:18.758Z,35.22
2019-03-12T09:23:18.765Z,35.33
2019-03-12T09:24:18.741Z,35.33
2019-03-12T09:25:18.727Z,35.33
2019-03-12T09:26:18.727Z,34.92
2019-03-12T09:27:18.708Z,35.13
2019-03-12T09:28:18.709Z,35.03
2019-03-12T09:29:18.685Z,35.94
2019-03-12T09:30:18.684Z,35.52
2019-03-12T09:31:18.674Z,35.42
2019-03-12T09:32:18.658Z,34.92
2019-03-12T09:33:18.664Z,34.91
2019-03-12T09:34:18.634Z,35.13
2019-03-12T09:35:18.637Z,34.83
2019-03-12T09:36:18.614Z,34.63
2019-03-12T09:37:18.603Z,34.73
2019-03-12T09:38:18.615Z,34.53
2019-03-12T09:39:18.585Z,34.33
2019-03-12T09:40:18.578Z,34.33
2019-03-12T09:41:18.568Z,34.03
2019-03-12T09:42:18.568Z,34.63
2019-03-12T09:43:18.541Z,34.71
2019-03-12T09:44:18.547Z,34.53
2019-03-12T09:45:18.520Z,34.52
2019-03-12T09:46:18.514Z,34.23
2019-03-12T09:47:18.500Z,34.13
2019-03-12T09:48:18.488Z,34.73
2019-03-12T09:49:18.505Z,34.03
2019-03-12T09:50:18.466Z,35.13
2019-03-12T09:51:18.455Z,34.55
2019-03-12T09:52:18.481Z,34.92
2019-03-12T09:53:18.437Z,34.83
2019-03-12T09:54:18.446Z,34.33
2019-03-12T09:55:18.410Z,34.33
2019-03-12T09:56:18.403Z,34.33
2019-03-12T09:57:18.391Z,33.83
2019-03-12T09:58:18.382Z,34.23
2019-03-12T09:59:18.393Z,34.03
2019-03-12T10:00:18.363Z,34.03
2019-03-12T10:01:18.352Z,34.31
2019-03-12T10:02:18.341Z,33.53
2019-03-12T10:03:18.328Z,33.93
2019-03-12T10:04:18.461Z,33.83
2019-03-12T10:05:18.317Z,34.43
2019-03-12T10:06:18.297Z,34.43
2019-03-12T10:07:18.288Z,34.23
2019-03-12T10:08:18.282Z,34.03
2019-03-12T10:09:18.275Z,34.53
2019-03-12T10:10:18.250Z,33.83
2019-03-12T10:11:18.246Z,34.23
2019-03-12T10:12:18.239Z,34.13
2019-03-12T10:13:18.231Z,34.33
2019-03-12T10:14:18.227Z,34.13
2019-03-12T10:15:18.209Z,33.63
2019-03-12T10:16:18.195Z,33.53
2019-03-12T10:17:18.182Z,33.53
2019-03-12T10:18:18.170Z,33.83
2019-03-12T10:19:18.174Z,34.23
2019-03-12T10:20:18.150Z,33.75
2019-03-12T10:21:19.340Z,34.15
2019-03-12T10:22:18.154Z,34.45
2019-03-12T10:23:18.121Z,34.15
2019-03-12T10:24:18.141Z,33.83
2019-03-12T10:25:18.101Z,34.23
2019-03-12T10:26:18.088Z,33.73
2019-03-12T10:27:18.074Z,33.42
2019-03-12T10:28:18.072Z,33.32
2019-03-12T10:29:18.068Z,33.53
2019-03-12T10:30:18.071Z,34.43
2019-03-12T10:31:18.055Z,33.53
2019-03-12T10:32:18.024Z,34.33
2019-03-12T10:33:18.015Z,34.13
2019-03-12T10:34:28.902Z,34.43
2019-03-12T10:35:19.003Z,33.44
2019-03-12T10:36:18.123Z,34.43
2019-03-12T10:37:17.972Z,33.34
2019-03-12T10:38:17.965Z,33.14
2019-03-12T10:39:17.947Z,33.52
2019-03-12T10:40:17.958Z,33.62
2019-03-12T10:41:17.930Z,33.04
2019-03-12T10:42:17.915Z,33.02
2019-03-12T10:43:18.852Z,33.32
2019-03-12T10:44:17.894Z,33.62
2019-03-12T10:45:17.901Z,33.32
2019-03-12T10:46:17.876Z,33.92
2019-03-12T10:47:17.862Z,33.44
2019-03-12T10:48:17.857Z,33.53
2019-03-12T10:49:17.949Z,33.44
2019-03-12T10:50:17.848Z,33.53
2019-03-12T10:51:17.822Z,33.14
2019-03-12T10:52:17.816Z,33.93
2019-03-12T10:53:17.810Z,33.14
2019-03-12T10:54:17.788Z,33.93
2019-03-12T10:55:17.806Z,33.93
2019-03-12T10:56:17.768Z,33.63
2019-03-12T10:57:17.772Z,33.14
2019-03-12T10:58:17.748Z,33.04
2019-03-12T10:59:17.750Z,32.93
2019-03-12T11:00:17.743Z,33.73
2019-03-12T11:01:17.798Z,33.14
2019-03-12T11:02:17.702Z,32.93
2019-03-12T11:03:17.697Z,33.44
2019-03-12T11:04:17.680Z,33.63
2019-03-12T11:05:17.769Z,33.73
2019-03-12T11:06:17.670Z,33.63
2019-03-12T11:07:17.656Z,33.73
2019-03-12T11:08:17.648Z,32.93
2019-03-12T11:09:17.631Z,32.92
2019-03-12T11:10:17.660Z,33.22
2019-03-12T11:11:17.610Z,33.32
2019-03-12T11:12:17.623Z,32.82
2019-03-12T11:13:17.603Z,32.82
2019-03-12T11:14:17.577Z,32.92
2019-03-12T11:15:17.569Z,32.62
2019-03-12T11:16:17.579Z,32.64
2019-03-12T11:17:17.549Z,32.04
2019-03-12T11:18:17.573Z,32.93
2019-03-12T11:19:17.527Z,33.85
2019-03-12T11:20:17.516Z,32.95
2019-03-12T11:21:17.527Z,33.45
2019-03-12T11:22:17.495Z,33.47
2019-03-12T11:23:17.500Z,33.67
2019-03-12T11:24:17.477Z,33.58
2019-03-12T11:25:27.200Z,33.48
2019-03-12T11:26:18.463Z,34.18
2019-03-12T11:27:17.441Z,34.28
2019-03-12T11:28:17.432Z,34.80
2019-03-12T11:29:17.420Z,34.09
2019-03-12T11:30:17.411Z,34.80
2019-03-12T11:31:17.415Z,34.09
2019-03-12T11:32:17.389Z,33.90
2019-03-12T11:33:17.381Z,34.59
2019-03-12T11:34:17.374Z,34.00
2019-03-12T11:35:17.354Z,33.78
2019-03-12T11:36:17.376Z,34.18
2019-03-12T11:37:17.345Z,34.18
2019-03-12T11:38:17.325Z,34.56
2019-03-12T11:39:17.318Z,33.56
2019-03-12T11:40:17.380Z,33.55
2019-03-12T11:41:17.304Z,33.25
2019-03-12T11:42:17.291Z,32.84
2019-03-12T11:43:17.283Z,33.44
2019-03-12T11:44:17.265Z,32.74
2019-03-12T11:45:19.432Z,32.23
2019-03-12T11:46:17.271Z,32.82
2019-03-12T11:47:17.241Z,32.62
2019-03-12T11:48:17.250Z,32.72
2019-03-12T11:49:17.221Z,32.84
2019-03-12T11:50:17.209Z,32.84
2019-03-12T11:51:17.235Z,32.53
2019-03-12T11:52:17.192Z,33.04
2019-03-12T11:53:17.196Z,32.84
2019-03-12T11:54:17.165Z,32.14
2019-03-12T11:55:17.390Z,32.84
2019-03-12T11:56:17.154Z,32.64
2019-03-12T11:57:17.132Z,33.22
2019-03-12T11:58:17.409Z,32.82
2019-03-12T11:59:17.105Z,32.53
2019-03-12T12:00:19.434Z,32.64
2019-03-12T12:01:17.114Z,33.04
2019-03-12T12:02:17.070Z,32.93
2019-03-12T12:03:17.062Z,33.02
2019-03-12T12:04:17.053Z,31.74
2019-03-12T12:05:17.056Z,32.74
2019-03-12T12:06:17.031Z,32.64
2019-03-12T12:07:17.043Z,32.84
2019-03-12T12:08:17.090Z,31.84
2019-03-12T12:09:17.019Z,32.84
2019-03-12T12:10:16.985Z,33.14
2019-03-12T12:11:16.977Z,32.54
2019-03-12T12:12:16.997Z,32.72
2019-03-12T12:13:16.955Z,32.84
2019-03-12T12:14:16.953Z,31.93
2019-03-12T12:15:16.936Z,31.73
2019-03-12T12:16:16.927Z,31.73
2019-03-12T12:17:16.930Z,32.14
2019-03-12T12:18:16.905Z,32.24
2019-03-12T12:19:16.894Z,32.32
2019-03-12T12:20:28.926Z,31.43
2019-03-12T12:21:17.871Z,32.24
2019-03-12T12:22:16.876Z,32.23
2019-03-12T12:23:16.852Z,32.14
2019-03-12T12:24:16.842Z,32.34
2019-03-12T12:25:16.826Z,31.93
2019-03-12T12:26:16.823Z,31.54
2019-03-12T12:27:16.826Z,32.23
2019-03-12T12:28:16.800Z,32.32
2019-03-12T12:29:16.790Z,32.23
2019-03-12T12:30:16.773Z,31.94
2019-03-12T12:31:16.768Z,31.93
2019-03-12T12:32:16.779Z,32.32
2019-03-12T12:33:16.749Z,31.53
2019-03-12T12:34:16.737Z,32.42
2019-03-12T12:35:16.728Z,31.33
2019-03-12T12:36:16.710Z,31.45
2019-03-12T12:37:16.712Z,31.64
2019-03-12T12:38:16.693Z,31.94
2019-03-12T12:39:16.694Z,32.04
2019-03-12T12:40:16.674Z,32.44
2019-03-12T12:41:16.661Z,32.24
2019-03-12T12:42:16.673Z,32.44
2019-03-12T12:43:16.640Z,32.44
2019-03-12T12:44:16.630Z,32.23
2019-03-12T12:45:16.622Z,32.24
2019-03-12T12:46:16.606Z,31.43
2019-03-12T12:47:16.627Z,31.93
2019-03-12T12:48:16.582Z,31.13
2019-03-12T12:49:16.576Z,30.13
2019-03-12T12:50:16.571Z,29.94
2019-03-12T12:51:16.557Z,29.64
2019-03-12T12:52:16.559Z,29.55